createdAt,value
2023-10-23T00:03:09.886Z,8.37
2023-10-23T00:08:15.429Z,7.37
2023-10-23T00:13:20.787Z,7.37
2023-10-23T00:18:36.796Z,8.43
2023-10-23T00:23:42.754Z,9.37
2023-10-23T00:28:48.080Z,7.87
2023-10-23T00:33:53.428Z,7.67
2023-10-23T00:38:59.289Z,7.70
2023-10-23T00:44:04.671Z,8.60
2023-10-23T00:49:10.843Z,7.27
2023-10-23T00:54:16.944Z,7.47
2023-10-23T00:59:22.614Z,8.10
2023-10-23T01:04:28.970Z,7.40
2023-10-23T01:09:34.400Z,8.33
2023-10-23T01:14:39.954Z,6.87
2023-10-23T01:19:45.400Z,7.50
2023-10-23T01:24:52.187Z,8.10
2023-10-23T01:29:57.570Z,6.37
2023-10-23T01:35:02.921Z,7.33
2023-10-23T01:40:08.745Z,7.47
2023-10-23T01:45:26.891Z,7.13
2023-10-23T01:50:31.076Z,7.13
2023-10-23T01:55:37.627Z,6.67
2023-10-23T02:00:43.065Z,7.30
2023-10-23T02:05:50.428Z,6.63
2023-10-23T02:10:55.780Z,7.73
2023-10-23T02:16:01.173Z,6.93
2023-10-23T02:21:06.400Z,6.43
2023-10-23T02:26:11.672Z,5.90
2023-10-23T02:31:17.404Z,6.77
2023-10-23T02:36:22.999Z,7.47
2023-10-23T02:41:32.583Z,7.07
2023-10-23T02:46:39.897Z,8.17
2023-10-23T02:51:46.076Z,8.37
2023-10-23T02:56:51.457Z,8.47
2023-10-23T03:01:56.829Z,7.90
2023-10-23T03:07:02.416Z,7.37
2023-10-23T03:12:08.110Z,8.20
2023-10-23T03:17:13.497Z,8.57
2023-10-23T03:22:18.961Z,7.60
2023-10-23T03:27:24.400Z,8.97
2023-10-23T03:32:30.802Z,7.40
2023-10-23T03:37:36.161Z,7.10
2023-10-23T03:42:43.049Z,6.40
2023-10-23T03:47:48.404Z,6.50
2023-10-23T03:52:53.742Z,7.20
2023-10-23T03:57:59.245Z,6.27
2023-10-23T04:03:04.821Z,6.40
2023-10-23T04:08:13.231Z,6.17
2023-10-23T04:13:19.550Z,5.67
2023-10-23T04:18:28.057Z,6.37
2023-10-23T04:23:34.290Z,8.43
2023-10-23T04:28:40.785Z,6.07
2023-10-23T04:33:46.219Z,8.03
2023-10-23T04:38:51.646Z,7.47
2023-10-23T04:43:57.332Z,7.37
2023-10-23T04:49:03.462Z,7.37
2023-10-23T04:54:08.905Z,6.63
2023-10-23T04:59:16.332Z,8.90
2023-10-23T05:04:32.797Z,8.07
2023-10-23T05:09:38.472Z,9.23
2023-10-23T05:14:43.994Z,8.80
2023-10-23T05:19:49.582Z,8.23
2023-10-23T05:24:55.235Z,8.93
2023-10-23T05:30:00.817Z,8.23
2023-10-23T05:35:06.588Z,10.00
2023-10-23T05:40:12.629Z,9.93
2023-10-23T05:45:18.209Z,10.10
2023-10-23T05:50:23.654Z,9.33
2023-10-23T05:55:29.053Z,8.83
2023-10-23T06:00:34.531Z,8.60
2023-10-23T06:05:43.007Z,9.50
2023-10-23T06:10:48.601Z,7.77
2023-10-23T06:15:54.558Z,9.47
2023-10-23T06:21:03.700Z,9.43
2023-10-23T06:26:09.977Z,8.97
2023-10-23T06:31:15.544Z,8.13
2023-10-23T06:36:21.157Z,9.20
2023-10-23T06:41:26.649Z,10.73
2023-10-23T06:46:32.342Z,9.60
2023-10-23T06:51:37.878Z,9.77
2023-10-23T06:56:44.362Z,8.87
2023-10-23T07:01:49.690Z,8.63
2023-10-23T07:06:57.276Z,9.30
2023-10-23T07:12:03.090Z,8.33
2023-10-23T07:17:13.998Z,8.30
2023-10-23T07:22:19.930Z,8.90
2023-10-23T07:27:29.496Z,8.97
2023-10-23T07:32:36.210Z,8.47
2023-10-23T07:37:42.768Z,7.43
2023-10-23T07:42:48.204Z,7.53
2023-10-23T07:47:54.198Z,8.30
2023-10-23T07:52:59.865Z,8.37
2023-10-23T07:58:06.372Z,7.77
2023-10-23T08:03:14.999Z,7.97
2023-10-23T08:08:20.896Z,7.97
2023-10-23T08:13:27.302Z,7.27
2023-10-23T08:18:48.104Z,6.57
2023-10-23T08:24:00.717Z,7.27
2023-10-23T08:29:16.875Z,7.10
2023-10-23T08:34:55.271Z,5.57
2023-10-23T08:40:05.059Z,5.63
2023-10-23T08:45:34.108Z,5.00
2023-10-23T08:56:54.473Z,4.70
2023-10-23T09:02:08.733Z,5.00
2023-10-23T09:07:21.441Z,3.73
2023-10-23T09:12:41.128Z,3.23
2023-10-23T09:23:18.636Z,2.70
2023-10-23T09:28:33.515Z,2.97
2023-10-23T09:33:41.967Z,3.07
2023-10-23T09:44:33.321Z,3.20
2023-10-23T09:49:48.405Z,2.90
2023-10-23T09:55:21.439Z,3.20
2023-10-23T10:00:40.399Z,2.30
2023-10-23T10:06:12.952Z,2.47
2023-10-23T10:11:47.302Z,2.60
2023-10-23T10:16:58.543Z,2.33
2023-10-23T10:22:18.909Z,2.87
2023-10-23T10:27:33.086Z,1.67
2023-10-23T10:33:34.121Z,1.70
2023-10-23T10:43:40.860Z,1.60
2023-10-23T10:48:54.245Z,1.43
2023-10-23T10:54:09.421Z,1.30
2023-10-23T10:59:21.543Z,1.70
2023-10-23T11:04:27.952Z,0.90
2023-10-23T11:09:38.047Z,1.03
2023-10-23T11:20:41.944Z,1.50
2023-10-23T11:25:56.813Z,1.27
2023-10-23T11:31:05.273Z,1.10
2023-10-23T11:36:41.222Z,1.33
2023-10-23T11:48:13.122Z,1.37
2023-10-23T11:53:38.008Z,0.80
2023-10-23T11:58:48.657Z,0.97
2023-10-23T12:04:11.612Z,1.30
2023-10-23T12:09:13.221Z,0.87
2023-10-23T12:14:24.013Z,1.23
2023-10-23T12:19:45.111Z,1.93
2023-10-23T12:24:41.016Z,0.83
2023-10-23T12:29:52.814Z,1.30
2023-10-23T12:40:32.625Z,1.20
2023-10-23T12:45:42.438Z,1.53
2023-10-23T12:50:53.266Z,1.40
2023-10-23T12:56:04.750Z,1.50
2023-10-23T13:01:13.217Z,1.57
2023-10-23T13:06:25.880Z,1.57
2023-10-23T13:11:40.678Z,1.60
2023-10-23T13:17:24.406Z,2.23
2023-10-23T13:22:50.041Z,1.90
2023-10-23T13:28:14.738Z,2.10
2023-10-23T13:33:22.858Z,2.53
2023-10-23T13:38:31.276Z,3.57
2023-10-23T13:43:45.174Z,2.77
2023-10-23T13:49:04.691Z,2.60
2023-10-23T13:54:19.320Z,2.80
2023-10-23T13:59:31.513Z,2.20
2023-10-23T14:04:40.989Z,2.50
2023-10-23T14:10:10.154Z,2.77
2023-10-23T14:15:15.819Z,2.43
2023-10-23T14:20:47.092Z,2.53
2023-10-23T14:26:08.017Z,2.27
2023-10-23T14:31:43.551Z,2.80
2023-10-23T14:42:47.628Z,3.33
2023-10-23T14:48:32.124Z,4.40
2023-10-23T14:59:26.531Z,2.70
2023-10-23T15:11:29.200Z,2.87
2023-10-23T15:22:51.845Z,3.63
2023-10-23T15:28:20.082Z,3.47
2023-10-23T15:33:44.628Z,4.60
2023-10-23T15:44:40.330Z,3.77
2023-10-23T15:50:30.016Z,4.07
2023-10-23T16:01:49.763Z,7.50
2023-10-23T16:12:33.999Z,5.13
2023-10-23T16:17:39.951Z,6.00
2023-10-23T16:22:47.196Z,7.70
2023-10-23T16:28:01.716Z,20.97
2023-10-23T16:38:51.104Z,29.70
2023-10-23T16:55:09.123Z,22.33
2023-10-23T17:00:23.077Z,18.60
2023-10-23T17:22:59.342Z,15.47
2023-10-23T17:28:13.812Z,15.03
2023-10-23T17:33:27.813Z,13.93
2023-10-23T17:39:03.395Z,13.00
2023-10-23T17:50:11.283Z,15.00
2023-10-23T17:55:20.036Z,15.43
2023-10-23T18:00:36.202Z,14.70
2023-10-23T18:06:00.562Z,13.30
2023-10-23T18:11:42.403Z,14.50
2023-10-23T18:16:50.398Z,15.33
2023-10-23T18:28:07.600Z,16.73
2023-10-23T18:58:04.301Z,16.83
2023-10-23T19:09:54.933Z,22.27
2023-10-23T19:45:44.058Z,13.63
2023-10-23T19:56:42.167Z,16.63
2023-10-23T20:01:58.591Z,20.33
2023-10-23T20:07:31.418Z,37.33
2023-10-23T20:12:55.894Z,28.67
2023-10-23T20:23:58.414Z,20.70
2023-10-23T20:29:03.790Z,19.33
2023-10-23T20:34:30.425Z,17.20
2023-10-23T20:39:41.536Z,18.13
2023-10-23T20:44:54.889Z,17.37
2023-10-23T20:50:02.876Z,18.93
2023-10-23T20:55:11.248Z,22.27
2023-10-23T21:00:40.049Z,24.27
2023-10-23T21:06:15.586Z,22.03
2023-10-23T21:11:27.651Z,21.97
2023-10-23T21:16:38.339Z,16.90
2023-10-23T21:21:53.551Z,17.33
2023-10-23T21:27:18.006Z,15.43
2023-10-23T21:32:23.833Z,18.70
2023-10-23T21:37:47.564Z,18.70
2023-10-23T21:42:59.088Z,21.33
2023-10-23T21:48:08.025Z,15.87
2023-10-23T21:53:20.930Z,13.57
2023-10-23T21:58:29.693Z,13.40
2023-10-23T22:03:52.542Z,13.30
2023-10-23T22:09:16.998Z,9.50
2023-10-23T22:14:37.618Z,11.40
2023-10-23T22:19:44.889Z,12.03
2023-10-23T22:24:54.807Z,11.37
2023-10-23T22:30:28.359Z,9.00
2023-10-23T22:41:19.562Z,9.13
2023-10-23T22:46:28.311Z,8.67
2023-10-23T22:51:45.623Z,8.57
2023-10-23T22:57:07.107Z,7.97
2023-10-23T23:02:17.520Z,7.70
2023-10-23T23:07:32.381Z,10.60
2023-10-23T23:12:50.928Z,8.83
2023-10-23T23:18:06.676Z,8.13
2023-10-23T23:23:22.275Z,7.70
2023-10-23T23:28:30.641Z,9.50
2023-10-23T23:33:43.957Z,9.40
2023-10-23T23:38:56.044Z,10.10
2023-10-23T23:44:08.421Z,8.40
2023-10-23T23:49:15.472Z,8.10
2023-10-23T23:54:27.770Z,8.63
